Time;durP1;ratioP1;P1;durP2;ratioP2;P2;SDS_P1;SDS_P2;PMS_P1;PMS_P2;Temp;Humidity;BMP_temperature;BMP_pressure;BME280_temperature;BME280_humidity;BME280_pressure;Samples;Min_cycle;Max_cycle;Signal;HPM_P1;HPM_P2
2021/06/17 00:00:26;;;;;;;21.20;18.95;;;;;;;17.74;68.39;99170.52;124740;1093;64348;-81
2021/06/17 00:03:14;;;;;;;21.85;19.55;;;;;;;17.68;68.89;99180.05;124724;1093;65520;-81
2021/06/17 00:05:42;;;;;;;26.10;21.35;;;;;;;17.65;68.69;99177.64;124749;1093;64251;-81
2021/06/17 00:08:10;;;;;;;21.43;19.20;;;;;;;17.63;68.99;99181.47;124720;1096;64348;-81
2021/06/17 00:10:42;;;;;;;25.40;20.43;;;;;;;17.57;69.21;99177.51;124652;1093;64280;-81
2021/06/17 00:13:15;;;;;;;30.30;21.87;;;;;;;17.59;69.75;99182.73;124716;1092;64274;-81
2021/06/17 00:15:43;;;;;;;25.00;20.83;;;;;;;17.55;69.72;99177.64;124723;1093;64294;-81
2021/06/17 00:18:12;;;;;;;21.77;19.03;;;;;;;17.52;69.65;99179.78;124780;1093;65373;-82
2021/06/17 00:20:40;;;;;;;21.27;18.43;;;;;;;17.50;69.97;99176.37;124736;1093;64379;-82
2021/06/17 00:23:09;;;;;;;20.63;18.43;;;;;;;17.47;69.81;99179.35;124757;1093;64326;-81
2021/06/17 00:25:37;;;;;;;23.30;19.40;;;;;;;17.41;69.89;99175.38;124727;1093;64247;-82
2021/06/17 00:28:04;;;;;;;21.23;19.23;;;;;;;17.34;70.15;99183.17;124729;1093;64277;-81
2021/06/17 00:30:32;;;;;;;21.90;19.70;;;;;;;17.28;70.14;99185.59;124778;1093;64231;-80
2021/06/17 00:32:59;;;;;;;22.13;19.80;;;;;;;17.24;70.28;99178.77;124730;1093;64229;-81
2021/06/17 00:35:28;;;;;;;24.97;19.20;;;;;;;17.27;70.58;99190.13;124691;1093;64283;-81
2021/06/17 00:37:58;;;;;;;22.43;20.17;;;;;;;17.30;70.39;99178.23;124782;1093;64235;-80
2021/06/17 00:40:26;;;;;;;24.38;19.95;;;;;;;17.30;70.72;99183.61;124793;1093;64322;-81
2021/06/17 00:42:55;;;;;;;25.43;20.13;;;;;;;17.32;71.01;99178.91;124800;1093;64273;-81
2021/06/17 00:45:36;;;;;;;20.70;18.50;;;;;;;17.33;70.79;99176.09;124738;1093;64434;-81
2021/06/17 00:48:05;;;;;;;23.33;17.73;;;;;;;17.32;70.73;99177.09;124685;1093;64246;-81
2021/06/17 00:50:37;;;;;;;20.83;18.63;;;;;;;17.31;70.80;99180.77;124729;1092;64460;-81
2021/06/17 00:53:10;;;;;;;21.03;18.70;;;;;;;17.29;71.25;99177.35;124768;1093;64191;-81
2021/06/17 00:55:41;;;;;;;20.60;18.30;;;;;;;17.27;71.24;99179.36;124696;1093;64433;-82
2021/06/17 00:58:09;;;;;;;20.80;18.27;;;;;;;17.24;71.10;99173.38;124751;1093;64380;-81
2021/06/17 01:00:37;;;;;;;20.60;18.03;;;;;;;17.21;71.47;99174.52;124695;1093;64277;-82
2021/06/17 01:03:04;;;;;;;21.73;17.20;;;;;;;17.19;71.63;99173.80;124762;1093;64644;-82
2021/06/17 01:05:32;;;;;;;22.40;17.33;;;;;;;17.16;71.72;99179.47;124665;1093;64603;-82
2021/06/17 01:08:02;;;;;;;18.07;15.73;;;;;;;17.16;71.86;99173.23;124665;1093;64395;-82
2021/06/17 01:10:36;;;;;;;;;;;;;;;17.14;72.20;99175.21;124747;1093;64612;-81
2021/06/17 01:13:09;;;;;;;18.55;14.95;;;;;;;17.11;71.80;99173.64;124767;1093;64293;-80
2021/06/17 01:15:43;;;;;;;21.17;15.93;;;;;;;17.08;71.95;99177.47;124679;1093;64322;-81
2021/06/17 01:18:14;;;;;;;17.00;15.20;;;;;;;17.04;71.72;99177.91;124686;1093;64296;-81
2021/06/17 01:20:57;;;;;;;18.47;16.57;;;;;;;16.96;71.49;99173.22;124823;1093;64226;-81
2021/06/17 01:24:04;;;;;;;18.13;16.20;;;;;;;16.89;71.67;99175.60;124795;1093;64874;-81
2021/06/17 01:26:41;;;;;;;18.13;15.07;;;;;;;16.81;71.82;99175.44;124687;1093;64373;-81
2021/06/17 01:29:15;;;;;;;17.37;15.03;;;;;;;16.76;72.28;99176.81;124799;1093;64220;-81
2021/06/17 01:31:44;;;;;;;16.50;13.85;;;;;;;16.72;72.09;99172.69;124768;1093;64293;-81
2021/06/17 01:34:13;;;;;;;17.85;14.80;;;;;;;16.67;72.11;99179.34;124712;1093;64195;-81
2021/06/17 01:36:48;;;;;;;16.30;14.60;;;;;;;16.69;72.02;99181.88;124740;1093;64293;-81
2021/06/17 01:39:19;;;;;;;16.60;14.50;;;;;;;16.70;72.27;99166.61;124734;1093;64198;-81
2021/06/17 01:41:49;;;;;;;16.27;14.57;;;;;;;16.66;72.36;99169.55;124709;1093;64396;-81
2021/06/17 01:44:19;;;;;;;;;;;;;;;16.63;72.31;99171.67;124787;1093;64248;-81
2021/06/17 01:46:48;;;;;;;17.68;15.23;;;;;;;16.54;72.37;99167.98;124682;1093;64277;-81
2021/06/17 01:49:17;;;;;;;16.17;14.57;;;;;;;16.48;72.32;99167.66;124760;1093;64420;-81
2021/06/17 01:51:47;;;;;;;16.10;14.03;;;;;;;16.39;72.42;99164.80;124762;1093;64278;-81
2021/06/17 01:54:23;;;;;;;15.65;13.18;;;;;;;16.33;72.43;99164.50;124784;1093;64271;-82
2021/06/17 01:56:53;;;;;;;15.15;13.55;;;;;;;16.26;72.63;99166.86;124679;1093;64379;-80
2021/06/17 01:59:23;;;;;;;15.07;13.27;;;;;;;16.18;72.68;99162.16;124789;1093;64341;-81
2021/06/17 02:01:56;;;;;;;16.07;14.47;;;;;;;16.16;72.95;99169.50;124780;1093;64199;-81
2021/06/17 02:04:25;;;;;;;19.33;14.50;;;;;;;16.17;73.16;99170.38;124698;1093;64291;-81
2021/06/17 02:06:53;;;;;;;17.60;15.40;;;;;;;16.24;73.75;99171.52;124752;1093;64637;-81
2021/06/17 02:09:23;;;;;;;18.67;16.67;;;;;;;16.28;73.90;99172.97;124710;1093;64198;-81
2021/06/17 02:11:52;;;;;;;36.77;15.80;;;;;;;16.29;73.43;99169.28;124720;1093;64325;-81
2021/06/17 02:14:20;;;;;;;16.03;14.40;;;;;;;16.21;73.42;99178.02;124746;1093;64293;-80
2021/06/17 02:16:49;;;;;;;18.63;14.27;;;;;;;16.10;73.23;99178.11;124734;1093;64376;-81
2021/06/17 02:19:19;;;;;;;17.17;15.37;;;;;;;16.05;73.64;99176.80;124719;1092;64281;-81
2021/06/17 02:21:52;;;;;;;16.10;14.63;;;;;;;16.06;73.66;99175.81;124695;1096;64345;-81
2021/06/17 02:24:21;;;;;;;16.73;14.10;;;;;;;16.05;73.73;99172.27;124777;1093;64434;-81
2021/06/17 02:26:52;;;;;;;16.55;14.85;;;;;;;15.99;73.72;99189.80;124745;1093;64313;-80
2021/06/17 02:29:22;;;;;;;16.50;13.90;;;;;;;15.90;73.80;99178.97;124728;1093;64266;-80
2021/06/17 02:31:51;;;;;;;17.43;15.55;;;;;;;15.88;74.10;99179.13;124774;1093;64251;-81
2021/06/17 02:34:19;;;;;;;22.33;18.00;;;;;;;15.92;74.13;99179.70;124778;1093;64296;-81
2021/06/17 02:36:48;;;;;;;19.20;16.10;;;;;;;16.01;74.27;99176.23;124721;1093;64622;-81
2021/06/17 02:39:20;;;;;;;19.07;17.17;;;;;;;16.04;74.50;99170.59;124827;1093;64297;-81
2021/06/17 02:41:53;;;;;;;21.87;17.03;;;;;;;16.05;74.53;99169.59;124760;1093;64194;-82
2021/06/17 02:44:24;;;;;;;21.67;16.93;;;;;;;16.08;74.48;99172.00;124660;1092;64220;-80
2021/06/17 02:46:54;;;;;;;18.97;17.07;;;;;;;16.10;74.22;99174.57;124712;1093;64297;-81
2021/06/17 02:49:22;;;;;;;19.25;15.20;;;;;;;16.10;74.08;99179.95;124684;1093;64296;-81
2021/06/17 02:51:50;;;;;;;18.97;16.97;;;;;;;16.03;74.08;99168.86;124707;1093;64338;-81
2021/06/17 02:54:20;;;;;;;21.10;18.57;;;;;;;16.10;74.31;99170.04;124718;1093;64219;-81
2021/06/17 02:57:03;;;;;;;24.90;18.10;;;;;;;16.13;74.64;99169.77;124726;1093;64226;-81
2021/06/17 03:00:02;;;;;;;18.03;16.23;;;;;;;16.19;74.58;99174.63;124719;1093;64293;-81
2021/06/17 03:03:06;;;;;;;21.27;18.03;;;;;;;16.18;74.42;99175.59;124729;1093;64332;-81
2021/06/17 03:05:52;;;;;;;20.67;18.60;;;;;;;16.28;74.60;99172.97;124734;1093;64244;-81
2021/06/17 03:08:31;;;;;;;18.25;16.30;;;;;;;16.35;74.06;99166.07;124722;1093;64367;-81
2021/06/17 03:11:01;;;;;;;19.40;17.17;;;;;;;16.35;73.86;99170.58;124787;1093;64309;-80
2021/06/17 03:13:32;;;;;;;18.40;16.50;;;;;;;16.36;74.43;99177.67;124790;1092;64233;-81
2021/06/17 03:16:02;;;;;;;18.40;16.75;;;;;;;16.38;74.12;99173.02;124819;1092;64425;-81
2021/06/17 03:18:33;;;;;;;25.37;21.13;;;;;;;16.42;74.08;99171.74;124786;1093;64334;-81
2021/06/17 03:21:01;;;;;;;21.93;19.63;;;;;;;16.51;73.77;99183.52;124784;1093;64246;-81
2021/06/17 03:23:31;;;;;;;21.50;19.25;;;;;;;16.51;74.01;99181.70;124731;1093;64277;-82
2021/06/17 03:26:04;;;;;;;23.25;20.85;;;;;;;16.53;74.11;99178.86;124729;1096;64293;-81
2021/06/17 03:28:32;;;;;;;21.20;19.03;;;;;;;16.88;73.59;99175.76;124730;1093;64331;-82
2021/06/17 03:31:02;;;;;;;19.83;17.30;;;;;;;18.09;72.00;99175.33;124761;1093;64354;-82
2021/06/17 03:33:33;;;;;;;18.83;16.93;;;;;;;19.08;70.22;99167.47;124783;1093;64277;-82
2021/06/17 03:36:01;;;;;;;17.43;15.93;;;;;;;19.91;68.97;99158.28;124783;1093;64216;-81
2021/06/17 03:38:31;;;;;;;17.60;15.80;;;;;;;20.72;67.57;99157.91;124780;1093;64284;-81
2021/06/17 03:41:00;;;;;;;17.70;16.10;;;;;;;21.53;65.85;99155.55;124790;1093;64303;-81
2021/06/17 03:43:28;;;;;;;16.83;15.27;;;;;;;22.24;63.93;99159.40;124784;1093;64294;-81
2021/06/17 03:45:58;;;;;;;17.50;15.90;;;;;;;22.76;62.91;99162.44;124761;1093;64287;-81
2021/06/17 03:48:26;;;;;;;18.18;16.15;;;;;;;23.28;61.88;99160.16;124830;1093;64280;-79
2021/06/17 03:50:53;;;;;;;18.67;16.97;;;;;;;23.76;61.00;99158.12;124736;1093;64300;-81
2021/06/17 03:53:22;;;;;;;17.30;15.87;;;;;;;24.24;59.66;99159.50;124693;1093;64382;-81
2021/06/17 03:55:53;;;;;;;18.30;16.47;;;;;;;24.75;58.54;99153.34;124794;1093;64257;-81
2021/06/17 03:58:25;;;;;;;18.43;16.73;;;;;;;25.23;57.78;99159.17;124737;1093;64282;-81
2021/06/17 04:00:56;;;;;;;17.73;16.13;;;;;;;25.65;56.25;99159.39;124679;1093;64274;-81
2021/06/17 04:03:26;;;;;;;17.67;16.17;;;;;;;26.08;55.43;99162.92;124704;1096;64281;-80
2021/06/17 04:05:58;;;;;;;18.00;16.37;;;;;;;26.49;54.40;99162.16;124821;1093;64287;-80
2021/06/17 04:08:41;;;;;;;18.03;16.43;;;;;;;26.85;53.43;99156.45;124834;1093;64380;-80
2021/06/17 04:11:10;;;;;;;18.73;16.90;;;;;;;27.20;52.62;99150.08;124737;1093;64305;-81
2021/06/17 04:13:42;;;;;;;19.90;18.07;;;;;;;27.38;51.37;99154.97;124807;1092;64278;-81
2021/06/17 04:16:17;;;;;;;18.70;17.05;;;;;;;27.43;51.05;99153.29;124780;1093;64280;-81
2021/06/17 04:18:47;;;;;;;18.63;16.90;;;;;;;27.49;50.36;99143.39;124698;1093;64332;-81
2021/06/17 04:21:18;;;;;;;19.93;17.40;;;;;;;27.56;49.81;99142.36;124771;1093;64236;-81
2021/06/17 04:23:52;;;;;;;19.23;17.43;;;;;;;27.62;49.44;99153.52;124803;1093;64308;-80
2021/06/17 04:26:22;;;;;;;18.13;16.37;;;;;;;27.86;48.60;99152.95;124745;1093;64297;-80
2021/06/17 04:28:53;;;;;;;18.90;17.10;;;;;;;27.87;48.64;99151.89;124717;1093;64210;-81
2021/06/17 04:31:20;;;;;;;18.67;16.97;;;;;;;27.97;48.20;99155.05;124699;1093;64308;-80
2021/06/17 04:33:49;;;;;;;18.60;16.83;;;;;;;28.24;47.34;99157.77;124653;1094;64399;-80
2021/06/17 04:36:16;;;;;;;18.47;16.77;;;;;;;28.31;47.31;99158.61;124710;1093;64293;-81
2021/06/17 04:38:47;;;;;;;18.00;16.33;;;;;;;28.58;46.55;99158.57;124753;1093;64220;-81
2021/06/17 04:41:16;;;;;;;18.27;16.67;;;;;;;28.69;45.75;99160.64;124785;1093;64468;-81
2021/06/17 04:43:44;;;;;;;20.43;18.37;;;;;;;28.84;45.64;99160.39;124743;1093;64364;-82
2021/06/17 04:46:12;;;;;;;18.80;16.90;;;;;;;28.88;45.08;99165.23;124727;1094;64434;-83
2021/06/17 04:48:43;;;;;;;17.57;15.73;;;;;;;28.90;45.48;99162.25;124762;1093;64194;-81
2021/06/17 04:51:13;;;;;;;18.70;17.03;;;;;;;29.08;45.03;99164.31;124779;1092;64281;-81
2021/06/17 04:53:40;;;;;;;18.03;16.30;;;;;;;29.17;44.54;99173.13;124903;1093;64309;-82
2021/06/17 04:56:08;;;;;;;17.47;15.67;;;;;;;29.21;44.32;99163.41;124660;1093;64293;-82
2021/06/17 04:58:36;;;;;;;17.53;15.93;;;;;;;29.41;44.18;99161.41;124807;1093;64299;-83
2021/06/17 05:01:05;;;;;;;17.78;16.08;;;;;;;29.38;43.10;99156.32;124893;1093;64277;-81
2021/06/17 05:03:33;;;;;;;17.67;16.10;;;;;;;29.20;43.12;99162.58;124951;1093;64727;-83
2021/06/17 05:06:01;;;;;;;17.65;15.25;;;;;;;29.16;43.15;99168.72;124961;1093;64328;-81
2021/06/17 05:11:15;;;;;;;18.23;16.33;;;;;;;29.46;43.19;99161.55;124686;1093;64274;-82
2021/06/17 05:13:43;;;;;;;17.73;15.93;;;;;;;29.41;42.64;99171.52;124723;1093;64415;-81
2021/06/17 05:16:10;;;;;;;17.33;15.50;;;;;;;29.44;42.86;99168.36;124676;1096;64210;-81
2021/06/17 05:18:38;;;;;;;16.87;15.47;;;;;;;29.48;42.25;99164.92;124706;1093;64281;-82
2021/06/17 05:21:05;;;;;;;18.60;16.80;;;;;;;29.38;41.76;99163.72;124680;1093;64372;-81
2021/06/17 05:23:34;;;;;;;17.67;16.10;;;;;;;29.30;42.22;99179.39;124676;1093;64427;-80
2021/06/17 05:26:02;;;;;;;18.03;16.47;;;;;;;29.38;42.93;99177.45;124751;1093;64401;-82
2021/06/17 05:28:30;;;;;;;17.73;15.93;;;;;;;29.56;42.42;99171.22;124743;1092;64274;-82
2021/06/17 05:31:01;;;;;;;17.90;16.20;;;;;;;29.66;42.16;99172.45;124712;1096;64782;-81
2021/06/17 05:33:30;;;;;;;18.07;16.37;;;;;;;29.60;42.01;99169.73;124757;1093;64300;-81
2021/06/17 05:35:59;;;;;;;17.40;15.90;;;;;;;29.55;42.22;99167.64;124785;1093;64223;-81
2021/06/17 05:38:29;;;;;;;17.00;15.38;;;;;;;29.77;41.68;99181.03;124712;1093;64280;-81
2021/06/17 05:40:56;;;;;;;18.00;16.20;;;;;;;29.70;41.52;99181.94;124774;1093;64197;-81
2021/06/17 05:43:23;;;;;;;17.63;16.00;;;;;;;29.73;41.34;99175.99;124739;1092;64269;-82
2021/06/17 05:45:51;;;;;;;15.87;14.27;;;;;;;29.73;41.29;99184.23;124727;1093;64294;-81
2021/06/17 05:48:18;;;;;;;16.50;14.80;;;;;;;29.84;41.55;99179.92;124675;1096;64846;-81
2021/06/17 05:50:47;;;;;;;16.27;14.53;;;;;;;29.99;41.66;99185.10;124709;1093;64293;-82
2021/06/17 05:53:14;;;;;;;16.83;15.03;;;;;;;30.08;41.45;99188.41;124743;1096;64364;-81
2021/06/17 05:55:42;;;;;;;15.33;13.80;;;;;;;30.13;40.86;99192.16;124679;1093;64274;-80
2021/06/17 05:58:11;;;;;;;14.17;12.97;;;;;;;29.99;41.78;99196.09;124709;1093;64704;-80
2021/06/17 06:00:40;;;;;;;16.10;14.20;;;;;;;30.02;41.22;99192.89;124759;1093;64693;-82
2021/06/17 06:03:08;;;;;;;14.05;12.75;;;;;;;30.00;41.00;99202.42;124739;1094;64324;-84
2021/06/17 06:05:36;;;;;;;14.23;11.97;;;;;;;29.96;40.89;99202.88;124696;1093;64374;-80
2021/06/17 06:08:10;;;;;;;13.90;12.50;;;;;;;30.09;40.90;99204.65;124715;1093;64296;-80
2021/06/17 06:10:39;;;;;;;13.63;12.20;;;;;;;30.29;41.18;99200.94;124722;1096;64282;-81
2021/06/17 06:13:07;;;;;;;14.70;13.30;;;;;;;30.51;40.56;99198.59;124795;1093;64275;-80
2021/06/17 06:15:35;;;;;;;14.50;12.63;;;;;;;30.53;39.95;99197.30;124693;1093;64411;-81
2021/06/17 06:18:13;;;;;;;13.57;12.13;;;;;;;30.55;39.93;99208.09;124720;1093;64274;-81
2021/06/17 06:20:47;;;;;;;13.45;12.15;;;;;;;30.68;40.23;99199.69;124746;1093;64219;-81
2021/06/17 06:23:17;;;;;;;12.50;11.30;;;;;;;30.83;40.13;99207.58;124706;1093;64373;-80
2021/06/17 06:25:47;;;;;;;12.27;11.27;;;;;;;31.02;39.74;99205.69;124745;1093;64426;-80
2021/06/17 06:28:16;;;;;;;11.83;10.83;;;;;;;31.06;39.91;99215.15;124753;1093;64232;-81
2021/06/17 06:30:43;;;;;;;12.00;10.83;;;;;;;31.08;39.59;99213.02;124774;1093;64347;-80
2021/06/17 06:33:11;;;;;;;12.47;11.33;;;;;;;31.19;39.33;99212.23;124769;1093;64303;-81
2021/06/17 06:35:38;;;;;;;13.00;11.07;;;;;;;31.11;39.09;99218.05;124661;1096;64284;-82
2021/06/17 06:38:10;;;;;;;11.67;10.67;;;;;;;30.96;39.17;99210.17;124674;1093;64290;-82
2021/06/17 06:40:38;;;;;;;13.30;10.65;;;;;;;30.81;38.65;99216.08;124691;1096;64439;-81
2021/06/17 06:43:08;;;;;;;12.57;11.37;;;;;;;30.63;38.85;99213.29;124728;1093;64300;-82
2021/06/17 06:45:44;;;;;;;11.10;10.20;;;;;;;30.68;39.76;99220.87;124738;1093;64271;-84
2021/06/17 06:48:12;;;;;;;12.27;11.13;;;;;;;30.73;39.13;99218.24;124761;1093;64326;-81
2021/06/17 06:50:39;;;;;;;11.53;10.43;;;;;;;30.71;40.11;99225.91;124763;1093;64415;-81
2021/06/17 06:53:07;;;;;;;14.30;11.50;;;;;;;30.78;39.66;99215.64;124738;1093;64278;-80
2021/06/17 06:55:34;;;;;;;11.67;10.50;;;;;;;30.69;39.12;99214.28;124754;1093;64296;-81
2021/06/17 06:58:01;;;;;;;12.10;11.03;;;;;;;30.55;39.13;99219.09;124697;1093;64249;-79
2021/06/17 07:00:28;;;;;;;12.05;10.80;;;;;;;30.45;38.91;99219.59;124698;1093;64181;-80
2021/06/17 07:02:56;;;;;;;12.03;10.93;;;;;;;30.33;38.81;99211.27;124752;1092;64415;-80
2021/06/17 07:05:26;;;;;;;12.10;10.93;;;;;;;30.24;39.51;99217.27;124686;1093;64299;-80
2021/06/17 07:07:53;;;;;;;12.03;10.93;;;;;;;30.26;39.88;99220.64;124698;1093;64766;-81
2021/06/17 07:10:20;;;;;;;14.00;10.93;;;;;;;30.22;39.43;99216.61;124758;1093;64277;-81
2021/06/17 07:12:47;;;;;;;10.57;9.47;;;;;;;30.10;39.47;99224.76;124690;1093;64287;-81
2021/06/17 07:15:15;;;;;;;11.77;10.53;;;;;;;29.97;39.74;99221.04;124747;1092;64420;-81
2021/06/17 07:17:42;;;;;;;10.17;9.10;;;;;;;29.99;40.42;99215.33;124699;1093;64194;-81
2021/06/17 07:20:09;;;;;;;10.90;9.80;;;;;;;30.15;40.37;99222.18;124690;1093;64235;-83
2021/06/17 07:22:37;;;;;;;10.50;9.07;;;;;;;30.16;40.53;99223.85;124824;1095;64303;-81
2021/06/17 07:25:05;;;;;;;10.80;9.70;;;;;;;30.21;40.13;99225.94;124697;1093;64848;-81
2021/06/17 07:27:32;;;;;;;9.50;8.40;;;;;;;30.07;39.81;99227.92;124807;1093;64747;-81
2021/06/17 07:29:59;;;;;;;10.40;9.40;;;;;;;29.75;40.05;99227.95;124750;1093;64277;-81
2021/06/17 07:32:27;;;;;;;9.50;8.37;;;;;;;29.35;40.06;99238.30;124738;1093;64273;-80
2021/06/17 07:34:54;;;;;;;13.10;9.50;;;;;;;28.89;41.00;99240.14;124810;1093;64290;-81
2021/06/17 07:37:21;;;;;;;10.17;8.80;;;;;;;28.56;41.70;99232.81;124756;1093;64277;-81
2021/06/17 07:39:49;;;;;;;9.50;8.60;;;;;;;28.23;42.78;99230.93;124760;1093;64390;-82
2021/06/17 07:42:16;;;;;;;9.37;8.37;;;;;;;28.18;42.90;99236.20;124769;1093;64306;-82
2021/06/17 07:44:43;;;;;;;10.27;9.27;;;;;;;28.15;42.60;99233.05;124703;1093;64306;-81
2021/06/17 07:47:11;;;;;;;8.97;8.07;;;;;;;27.90;42.93;99230.06;124780;1093;64367;-80
2021/06/17 07:49:38;;;;;;;13.83;10.60;;;;;;;27.77;43.27;99228.13;124662;1093;64290;-81
2021/06/17 07:52:06;;;;;;;9.30;8.33;;;;;;;27.63;43.78;99240.95;124678;1093;64443;-81
2021/06/17 07:54:33;;;;;;;9.63;8.73;;;;;;;27.61;44.07;99245.78;124715;1093;64220;-80
2021/06/17 07:57:01;;;;;;;9.53;8.37;;;;;;;27.59;43.71;99245.14;124760;1093;64254;-81
2021/06/17 07:59:29;;;;;;;10.73;8.60;;;;;;;27.46;44.06;99248.70;124686;1093;64373;-81
2021/06/17 08:01:56;;;;;;;9.67;7.87;;;;;;;27.48;44.58;99243.84;124709;1093;64335;-81
2021/06/17 08:04:27;;;;;;;8.67;7.77;;;;;;;27.61;45.03;99239.47;124708;1093;64291;-81
2021/06/17 08:06:54;;;;;;;9.63;8.20;;;;;;;27.69;43.99;99242.02;124681;1093;64779;-81
2021/06/17 08:09:22;;;;;;;8.43;7.63;;;;;;;27.71;44.18;99238.02;124699;1092;64280;-81
2021/06/17 08:11:52;;;;;;;8.40;7.60;;;;;;;27.71;43.43;99238.02;124703;1092;64277;-81
2021/06/17 08:14:24;;;;;;;8.30;7.50;;;;;;;27.75;43.69;99244.78;124718;1093;64318;-80
2021/06/17 08:16:54;;;;;;;8.10;7.30;;;;;;;27.89;43.35;99242.92;124758;1093;64277;-81
2021/06/17 08:19:28;;;;;;;8.23;5.87;;;;;;;27.86;42.38;99242.48;124771;1092;64291;-79
2021/06/17 08:21:59;;;;;;;6.90;6.17;;;;;;;27.85;43.54;99238.06;124714;1093;64293;-80
2021/06/17 08:24:27;;;;;;;7.87;7.17;;;;;;;27.85;42.59;99240.81;124696;1093;64194;-80
2021/06/17 08:26:54;;;;;;;7.10;6.40;;;;;;;27.88;43.03;99241.22;124661;1093;64775;-80
2021/06/17 08:29:22;;;;;;;7.23;6.53;;;;;;;27.97;43.03;99241.88;124722;1093;64466;-80
2021/06/17 08:31:49;;;;;;;7.00;6.20;;;;;;;28.10;42.95;99238.31;124603;1096;64292;-80
2021/06/17 08:34:17;;;;;;;7.10;6.50;;;;;;;28.07;42.09;99239.58;124756;1093;64374;-80
2021/06/17 08:36:44;;;;;;;7.70;6.90;;;;;;;28.04;42.03;99247.36;124746;1092;64261;-80
2021/06/17 08:39:11;;;;;;;7.63;6.50;;;;;;;28.00;42.73;99247.78;124664;1093;64297;-80
2021/06/17 08:41:39;;;;;;;10.57;6.53;;;;;;;28.06;43.18;99240.61;124703;1093;64428;-80
2021/06/17 08:44:06;;;;;;;7.57;6.87;;;;;;;28.07;42.32;99244.19;124732;1093;64295;-80
2021/06/17 08:46:33;;;;;;;7.60;7.00;;;;;;;28.02;42.37;99247.58;124740;1093;64295;-80
2021/06/17 08:49:01;;;;;;;9.10;6.83;;;;;;;28.12;42.91;99248.02;124757;1093;64254;-80
2021/06/17 08:51:33;;;;;;;6.50;6.00;;;;;;;28.24;41.92;99240.83;124691;1093;64376;-79
2021/06/17 08:54:00;;;;;;;7.15;6.50;;;;;;;28.35;42.43;99254.95;124739;1093;64278;-81
2021/06/17 08:56:28;;;;;;;6.60;6.00;;;;;;;28.45;41.41;99249.92;124720;1093;64287;-81
2021/06/17 08:58:57;;;;;;;8.07;6.53;;;;;;;28.44;41.75;99248.25;124703;1093;64904;-80
2021/06/17 09:01:25;;;;;;;9.00;6.70;;;;;;;28.43;41.75;99241.89;124761;1093;64766;-81
2021/06/17 09:03:54;;;;;;;7.30;6.70;;;;;;;28.37;41.72;99247.37;124750;1094;64482;-81
2021/06/17 09:06:23;;;;;;;7.60;6.90;;;;;;;28.36;41.82;99254.76;124687;1096;64295;-80
2021/06/17 09:09:02;;;;;;;6.67;6.17;;;;;;;28.30;41.41;99249.27;124725;1093;64656;-80
2021/06/17 09:11:30;;;;;;;7.50;6.77;;;;;;;28.40;41.58;99247.77;124774;1093;64300;-80
2021/06/17 09:14:14;;;;;;;6.43;5.83;;;;;;;28.47;41.87;99247.81;124775;1093;64293;-81
2021/06/17 09:16:57;;;;;;;7.13;6.47;;;;;;;28.55;40.44;99253.08;124698;1093;64316;-79
2021/06/17 09:19:48;;;;;;;8.30;7.47;;;;;;;28.47;41.29;99246.98;124654;1093;64229;-81
2021/06/17 09:22:19;;;;;;;8.33;7.63;;;;;;;28.43;41.64;99247.38;124750;1093;64293;-81
2021/06/17 09:24:49;;;;;;;7.73;6.93;;;;;;;28.49;42.26;99247.59;124691;1093;64290;-80
2021/06/17 09:27:31;;;;;;;8.00;7.20;;;;;;;28.64;42.40;99243.55;124761;1093;64251;-81
2021/06/17 09:30:19;;;;;;;7.97;7.23;;;;;;;28.84;42.00;99240.78;124685;1093;64399;-80
2021/06/17 09:32:53;;;;;;;6.93;6.33;;;;;;;28.93;42.11;99240.54;124721;1093;64274;-80
2021/06/17 09:35:23;;;;;;;6.40;5.90;;;;;;;29.14;41.94;99239.45;124808;1093;64338;-79
2021/06/17 09:38:05;;;;;;;8.77;7.10;;;;;;;29.20;41.24;99247.67;124820;1093;64229;-79
2021/06/17 09:40:37;;;;;;;7.90;6.57;;;;;;;29.08;40.67;99244.74;124824;1093;64200;-81
2021/06/17 09:43:28;;;;;;;6.90;6.30;;;;;;;29.02;39.99;99233.77;124791;1093;64319;-81
2021/06/17 09:46:06;;;;;;;8.87;6.60;;;;;;;28.95;40.52;99247.50;124839;1093;64380;-81
2021/06/17 09:48:37;;;;;;;7.93;7.23;;;;;;;29.06;40.69;99249.59;124798;1092;64354;-80
2021/06/17 09:51:29;;;;;;;9.53;6.70;;;;;;;29.18;41.36;99255.27;124709;1093;64246;-80
2021/06/17 09:54:21;;;;;;;6.05;5.55;;;;;;;29.29;39.92;99249.09;124696;1093;64310;-80
2021/06/17 09:56:51;;;;;;;7.63;5.53;;;;;;;29.22;39.04;99239.20;124686;1093;64319;-80
2021/06/17 09:59:46;;;;;;;6.83;5.60;;;;;;;29.25;39.82;99231.39;124721;1093;64405;-81
2021/06/17 10:02:24;;;;;;;6.23;5.67;;;;;;;29.34;39.38;99231.14;124690;1094;64277;-80
2021/06/17 10:05:13;;;;;;;6.57;5.63;;;;;;;29.42;39.52;99230.88;124752;1093;64247;-80
2021/06/17 10:07:42;;;;;;;5.58;5.13;;;;;;;29.55;39.26;99230.80;124756;1093;64217;-81
2021/06/17 10:10:12;;;;;;;5.77;5.10;;;;;;;29.57;38.12;99223.20;124711;1096;64278;-81
2021/06/17 10:12:41;;;;;;;6.53;5.40;;;;;;;29.42;38.04;99225.39;124854;1092;64291;-80
2021/06/17 10:15:09;;;;;;;6.93;5.93;;;;;;;29.39;38.41;99229.41;124724;1093;64370;-79
2021/06/17 10:17:41;;;;;;;7.07;4.87;;;;;;;29.41;38.29;99227.30;124739;1096;64296;-81
2021/06/17 10:20:10;;;;;;;6.20;5.20;;;;;;;29.31;38.16;99218.69;124686;1093;64343;-81
2021/06/17 10:22:39;;;;;;;6.37;5.20;;;;;;;29.38;38.89;99224.13;124746;1096;64386;-81
2021/06/17 10:25:10;;;;;;;5.45;4.78;;;;;;;29.53;38.99;99230.17;124796;1092;64251;-81
2021/06/17 10:27:41;;;;;;;5.83;5.27;;;;;;;29.70;39.01;99234.13;124778;1093;64277;-80
2021/06/17 10:30:10;;;;;;;5.65;5.15;;;;;;;29.81;38.58;99231.74;124823;1093;64274;-80
2021/06/17 10:32:43;;;;;;;5.08;4.60;;;;;;;29.87;38.01;99222.60;124817;1093;64275;-80
2021/06/17 10:35:11;;;;;;;6.87;5.13;;;;;;;29.86;37.56;99219.02;124738;1096;64306;-79
2021/06/17 10:37:49;;;;;;;5.43;4.93;;;;;;;29.86;38.26;99212.66;124688;1093;64589;-80
2021/06/17 10:40:23;;;;;;;5.90;5.30;;;;;;;29.92;38.33;99220.86;124732;1093;64354;-80
2021/06/17 10:42:52;;;;;;;5.37;4.87;;;;;;;29.89;37.72;99214.98;124728;1093;64297;-80
2021/06/17 10:45:44;;;;;;;5.70;5.05;;;;;;;29.88;37.84;99211.37;124729;1093;64198;-79
2021/06/17 10:48:14;;;;;;;6.40;4.63;;;;;;;29.86;37.16;99218.15;124784;1093;64294;-80
2021/06/17 10:50:55;;;;;;;5.40;5.00;;;;;;;29.89;36.73;99202.08;124804;1092;64290;-80
2021/06/17 10:53:35;;;;;;;5.47;5.00;;;;;;;29.87;37.20;99203.37;124763;1093;64258;-80
2021/06/17 10:56:16;;;;;;;5.53;5.03;;;;;;;29.74;36.57;99204.30;124643;1093;64315;-81
2021/06/17 10:58:43;;;;;;;5.13;4.43;;;;;;;29.61;36.48;99198.87;124697;1093;64194;-81
2021/06/17 11:01:28;;;;;;;6.23;5.67;;;;;;;29.72;36.02;99206.42;124654;1093;64299;-80
2021/06/17 11:04:17;;;;;;;5.50;4.97;;;;;;;29.69;36.34;99198.63;124625;1093;64348;-80
2021/06/17 11:07:03;;;;;;;5.50;4.97;;;;;;;29.65;36.85;99200.13;124674;1093;64198;-81
2021/06/17 11:09:49;;;;;;;5.47;4.97;;;;;;;29.61;37.04;99194.20;124665;1093;64319;-81
2021/06/17 11:12:19;;;;;;;5.50;5.00;;;;;;;29.71;36.65;99191.84;124633;1093;64300;-81
2021/06/17 11:14:48;;;;;;;5.67;5.00;;;;;;;29.73;36.81;99191.64;124650;1093;64300;-81
2021/06/17 11:17:31;;;;;;;5.60;5.10;;;;;;;29.86;37.46;99202.53;124878;1093;64418;-81
2021/06/17 11:20:07;;;;;;;9.37;5.70;;;;;;;29.93;37.57;99192.31;125049;1093;64370;-80
2021/06/17 11:22:39;;;;;;;6.20;5.43;;;;;;;29.91;36.78;99194.46;125050;1093;64200;-81
2021/06/17 11:25:16;;;;;;;6.47;5.30;;;;;;;29.85;36.82;99194.50;125010;1093;64293;-83
2021/06/17 11:28:16;;;;;;;5.90;5.43;;;;;;;29.83;36.83;99193.88;124928;1093;64379;-81
2021/06/17 11:30:44;;;;;;;5.50;4.87;;;;;;;29.96;37.68;99189.14;124827;1093;64281;-81
2021/06/17 11:33:17;;;;;;;5.57;5.00;;;;;;;30.08;37.14;99183.73;124777;1091;64299;-79
2021/06/17 11:35:49;;;;;;;6.43;5.60;;;;;;;30.04;37.17;99182.49;124759;1093;64278;-81